Latest Weather Observations for Swan Island

IDT60801

Issued at 2:21 am EST Friday 26 April 2019 (issued every 10 minutes, with the page automatically refreshed every 10 minutes)

About weather observations | Map of weather stations | Latest weather observations for TAS | Other Formats
Station Details ID: 092123 Name: SWAN ISLAND Lat: -40.73 Lon: 148.12 Height: 15.0 m
Data from the previous 72 hours. | See also: Recent months at Swan Island
Date/Time
EST
Temp
°C
App
Temp
°C
Dew
Point
°C
Rel
Hum
%
Delta-T
°C
Wind Press
QNH
hPa
Press
MSL
hPa
Rain since
9am
mm
Dir  Spd
km/h
Gust
km/h
Spd
kts
Gust
kts
26/02:02am 14.8 5.3 12.3 85 1.4 WNW 54 72 29 39 1004.5 1004.5 1.6
26/02:00am 14.9 5.5 12.6 86 1.3 WNW 54 70 29 38 1004.5 1004.5 1.6
26/01:37am 14.3 5.0 12.9 91 0.8 WNW 54 72 29 39 1004.9 1004.9 1.6
26/01:30am 14.2 4.3 12.9 92 0.7 WNW 57 70 31 38 1004.8 1004.8 1.6
26/01:00am 14.7 4.5 13.1 90 0.9 WNW 59 82 32 44 1005.5 1005.5 0.8
26/12:30am 16.3 4.7 11.2 72 2.7 WNW 63 89 34 48 1005.3 1005.3 0.0
26/12:10am 16.1 5.5 10.8 71 2.8 WNW 57 83 31 45 1005.5 1005.5 0.0
26/12:00am 15.9 5.4 10.9 72 2.7 WNW 57 76 31 41 1005.7 1005.7 0.0
 
Date/Time
EST
Temp
°C
App
Temp
°C
Dew
Point
°C
Rel
Hum
%
Delta-T
°C
Wind Press
QNH
hPa
Press
MSL
hPa
Rain since
9am
mm
Dir  Spd
km/h
Gust
km/h
Spd
kts
Gust
kts
25/11:37pm 16.1 5.5 11.9 76 2.3 WNW 59 80 32 43 1005.9 1005.9 0.0
25/11:30pm 16.0 5.7 11.6 75 2.4 WNW 57 72 31 39 1006.1 1006.1 0.0
25/11:01pm 15.9 5.9 10.9 72 2.7 WNW 54 76 29 41 1006.8 1006.8 0.0
25/11:00pm 16.0 6.1 11.0 72 2.7 WNW 54 70 29 38 1006.8 1006.8 0.0
25/10:35pm 15.8 7.0 11.0 73 2.6 WNW 48 69 26 37 1007.2 1007.2 0.0
25/10:30pm 15.8 7.1 11.2 74 2.5 WNW 48 67 26 36 1007.4 1007.4 0.0
25/10:00pm 15.4 5.5 11.0 75 2.3 WNW 54 76 29 41 1008.0 1008.0 0.0
25/09:30pm 15.5 6.0 11.1 75 2.3 WNW 52 72 28 39 1008.6 1008.6 0.0
25/09:00pm 14.5 5.5 11.7 83 1.5 WNW 50 70 27 38 1009.2 1009.2 0.0
25/08:30pm 14.3 4.9 11.5 83 1.5 WNW 52 76 28 41 1009.4 1009.4 0.0
25/08:00pm 14.8 5.9 11.8 82 1.6 WNW 50 70 27 38 1009.9 1009.9 0.0
25/07:30pm 14.6 4.7 11.0 79 1.9 WNW 54 76 29 41 1010.1 1010.1 0.0
25/07:00pm 15.4 7.4 11.2 76 2.2 WNW 44 65 24 35 1010.3 1010.3 0.0
25/06:31pm 15.6 7.6 11.0 74 2.5 WNW 44 65 24 35 1010.6 1010.6 0.0
25/06:30pm 15.5 7.1 10.9 74 2.4 WNW 46 65 25 35 1010.6 1010.6 0.0
25/06:12pm 15.8 7.1 10.1 69 3.0 WNW 46 67 25 36 1010.5 1010.5 0.0
25/06:00pm 15.6 6.5 9.9 69 3.0 WNW 48 63 26 34 1010.6 1010.6 0.0
25/05:30pm 15.5 7.1 9.6 68 3.1 WNW 44 65 24 35 1011.1 1011.0 0.0
25/05:07pm 15.2 6.9 10.0 71 2.7 WNW 44 65 24 35 1011.2 1011.1 0.0
25/05:00pm 15.2 7.0 9.8 70 2.8 WNW 43 59 23 32 1011.3 1011.2 0.0
25/04:30pm 15.8 8.0 9.7 67 3.2 WNW 41 61 22 33 1011.2 1011.1 0.0
25/04:00pm 15.6 7.5 10.2 70 2.8 WNW 43 61 23 33 1011.7 1011.6 0.0
25/03:56pm 15.6 7.9 10.2 70 2.8 WNW 41 61 22 33 1011.8 1011.7 0.0
25/03:30pm 16.2 9.0 10.5 69 3.0 WNW 39 57 21 31 1012.0 1011.9 0.0
25/03:01pm 16.1 8.9 10.4 69 3.0 WNW 39 57 21 31 1012.3 1012.2 0.0
25/03:00pm 15.9 8.2 10.2 69 3.0 WNW 41 57 22 31 1012.3 1012.2 0.0
25/02:30pm 16.1 9.3 10.6 70 2.9 WNW 37 57 20 31 1012.6 1012.5 0.0
25/02:03pm 16.3 9.6 9.5 64 3.5 W 35 59 19 32 1012.9 1012.8 0.0
25/02:00pm 16.2 9.9 9.8 66 3.3 W 33 50 18 27 1013.0 1012.9 0.0
25/01:32pm 16.4 8.9 9.3 63 3.7 W 39 57 21 31 1013.4 1013.3 0.0
25/01:30pm 16.2 8.3 9.2 63 3.6 W 41 59 22 32 1013.4 1013.3 0.0
25/01:00pm 16.2 9.5 9.6 65 3.4 W 35 54 19 29 1013.9 1013.8 0.0
25/12:30pm 16.9 9.7 9.3 61 4.0 W 37 59 20 32 1014.3 1014.2 0.0
25/12:04pm 16.5 10.3 9.2 62 3.8 W 32 54 17 29 1014.7 1014.6 0.0
25/12:00pm 16.6 10.4 9.3 62 3.8 W 32 50 17 27 1014.8 1014.7 0.0
25/11:58am 16.4 9.6 9.1 62 3.8 W 35 56 19 30 1014.8 1014.7 0.0
25/11:30am 16.5 9.1 8.5 59 4.1 W 37 52 20 28 1015.1 1015.0 0.0
25/11:15am 16.4 8.3 8.6 60 4.0 W 41 61 22 33 1015.1 1015.0 0.0
25/11:00am 16.7 9.7 8.4 58 4.2 W 35 54 19 29 1015.2 1015.1 0.0
25/10:54am 17.3 9.7 9.2 59 4.2 W 39 59 21 32 1015.2 1015.1 0.0
25/10:30am 16.9 9.7 9.3 61 4.0 W 37 54 20 29 1015.5 1015.4 0.0
25/10:01am 16.1 7.7 9.1 63 3.6 W 43 61 23 33 1015.8 1015.7 0.0
25/10:00am 16.2 7.7 9.4 64 3.5 W 44 61 24 33 1015.8 1015.7 0.0
25/09:32am 16.4 9.3 9.6 64 3.5 W 37 57 20 31 1015.9 1015.8 0.0
25/09:30am 16.4 8.9 9.3 63 3.7 W 39 57 21 31 1015.9 1015.8 0.0
25/09:01am 15.6 9.5 10.4 71 2.7 W 33 52 18 28 1016.0 1015.9 0.0
25/09:00am 15.7 9.8 10.5 71 2.7 W 32 50 17 27 1016.0 1015.9 0.2
25/08:30am 15.7 8.5 10.5 71 2.7 W 39 57 21 31 1015.8 1015.7 0.2
25/08:00am 15.9 9.3 10.0 68 3.1 W 35 57 19 31 1015.9 1015.8 0.2
25/07:52am 15.6 8.6 9.9 69 3.0 W 37 57 20 31 1015.9 1015.8 0.2
25/07:30am 15.3 8.7 9.9 70 2.8 W 35 52 19 28 1015.8 1015.7 0.2
25/07:00am 15.2 7.7 9.6 69 2.9 W 39 63 21 34 1015.3 1015.2 0.2
25/06:30am 14.9 8.1 9.1 68 3.0 W 35 56 19 30 1014.9 1014.8 0.2
25/06:25am 14.9 8.0 8.8 67 3.1 W 35 56 19 30 1015.0 1014.9 0.2
25/06:00am 15.0 6.0 8.7 66 3.2 W 46 63 25 34 1015.1 1015.0 0.2
25/05:33am 15.0 6.4 8.7 66 3.2 W 44 63 24 34 1014.7 1014.6 0.2
25/05:30am 15.0 5.9 8.5 65 3.3 W 46 63 25 34 1014.6 1014.5 0.2
25/05:00am 14.9 7.3 9.1 68 3.0 W 39 59 21 32 1014.3 1014.2 0.2
25/04:30am 15.0 7.2 9.8 71 2.7 W 41 63 22 34 1014.0 1013.9 0.2
25/04:00am 15.1 6.1 10.1 72 2.6 W 48 72 26 39 1013.5 1013.4 0.2
25/03:30am 15.1 7.3 11.3 78 2.0 W 43 63 23 34 1013.6 1013.5 0.2
25/03:00am 14.7 7.8 12.9 89 1.0 W 41 61 22 33 1014.2 1014.1 0.0
25/02:30am 16.0 8.1 12.6 80 1.9 WNW 46 67 25 36 1014.1 1014.0 0.0
25/02:03am 15.9 8.2 12.1 78 2.1 WNW 44 63 24 34 1014.4 1014.3 0.0
25/02:00am 16.0 8.4 12.4 79 2.0 WNW 44 63 24 34 1014.5 1014.4 0.0
25/01:30am 15.9 7.1 12.1 78 2.1 WNW 50 69 27 37 1014.7 1014.6 0.0
25/01:00am 15.9 7.4 11.9 77 2.2 WNW 48 72 26 39 1015.0 1014.9 0.0
25/12:40am 15.9 8.1 11.9 77 2.2 WNW 44 65 24 35 1015.2 1015.1 0.0
25/12:30am 15.6 7.2 11.2 75 2.4 WNW 46 63 25 34 1015.2 1015.1 0.0
25/12:25am 15.6 7.6 11.2 75 2.4 WNW 44 63 24 34 1015.3 1015.2 0.0
25/12:00am 15.6 7.6 11.2 75 2.4 WNW 44 57 24 31 1015.5 1015.4 0.0
 
Date/Time
EST
Temp
°C
App
Temp
°C
Dew
Point
°C
Rel
Hum
%
Delta-T
°C
Wind Press
QNH
hPa
Press
MSL
hPa
Rain since
9am
mm
Dir  Spd
km/h
Gust
km/h
Spd
kts
Gust
kts
24/11:38pm 15.7 8.3 11.1 74 2.5 WNW 41 61 22 33 1015.7 1015.6 0.0
24/11:30pm 15.7 7.6 10.9 73 2.6 WNW 44 61 24 33 1015.8 1015.7 0.0
24/11:19pm 15.5 7.5 10.5 72 2.6 WNW 43 65 23 35 1015.9 1015.8 0.0
24/11:00pm 15.4 7.8 10.4 72 2.6 WNW 41 54 22 29 1016.4 1016.3 0.0
24/10:50pm 15.3 8.7 10.1 71 2.7 W 35 56 19 30 1016.6 1016.5 0.0
24/10:30pm 15.4 8.8 11.2 76 2.2 WNW 37 52 20 28 1016.9 1016.8 0.0
24/10:00pm 15.3 9.4 10.3 72 2.6 W 32 50 17 27 1017.2 1017.1 0.0
24/09:34pm 15.3 9.3 10.7 74 2.4 W 33 52 18 28 1017.1 1017.0 0.0
24/09:30pm 15.5 9.5 10.9 74 2.4 W 33 50 18 27 1017.1 1017.0 0.0
24/09:06pm 15.5 9.2 10.9 74 2.4 WNW 35 54 19 29 1017.2 1017.1 0.0
24/09:00pm 15.5 8.8 10.9 74 2.4 WNW 37 52 20 28 1017.2 1017.1 0.0
24/08:38pm 15.4 9.1 11.2 76 2.2 WNW 35 54 19 29 1017.4 1017.3 0.0
24/08:30pm 15.3 8.8 11.7 79 1.9 WNW 37 54 20 29 1017.3 1017.2 0.0
24/08:00pm 15.1 8.3 12.1 82 1.6 WNW 39 52 21 28 1017.6 1017.5 0.0
24/07:30pm 15.2 9.3 12.5 84 1.5 WNW 35 50 19 27 1018.0 1017.9 0.0
24/07:00pm 15.7 10.1 12.1 79 2.0 WNW 33 44 18 24 1018.1 1018.0 0.0
24/06:30pm 15.5 11.2 11.9 79 2.0 W 26 43 14 23 1018.0 1017.9 0.0
24/06:00pm 15.6 10.5 11.8 78 2.1 WNW 30 44 16 24 1018.0 1017.9 0.0
24/05:30pm 15.6 10.3 11.4 76 2.3 WNW 30 43 16 23 1017.9 1017.8 0.0
24/05:00pm 15.7 10.2 11.7 77 2.2 WNW 32 43 17 23 1018.0 1017.9 0.0
24/04:30pm 15.8 10.9 11.4 75 2.4 WNW 28 39 15 21 1017.8 1017.7 0.0
24/04:00pm 16.4 11.5 11.3 72 2.7 WNW 28 39 15 21 1018.3 1018.2 0.0
24/03:30pm 16.6 12.6 11.7 73 2.7 WNW 24 33 13 18 1018.6 1018.5 0.0
24/03:00pm 16.4 10.9 11.8 74 2.5 W 32 44 17 24 1019.1 1019.0 0.0
24/02:30pm 15.9 11.6 11.9 77 2.2 W 26 39 14 21 1019.2 1019.1 0.0
24/02:00pm 16.2 12.6 12.0 76 2.3 WNW 22 32 12 17 1019.1 1019.0 0.0
24/01:30pm 16.6 12.4 12.4 76 2.3 WNW 26 35 14 19 1019.3 1019.2 0.0
24/01:00pm 16.2 11.6 12.2 77 2.2 WNW 28 41 15 22 1020.0 1019.9 0.0
24/12:30pm 16.2 12.5 12.6 79 2.0 WNW 24 33 13 18 1020.7 1020.6 0.0
24/12:00pm 16.3 12.5 12.3 77 2.2 WNW 24 33 13 18 1021.0 1020.9 0.0
24/11:30am 16.8 12.9 12.1 74 2.6 WNW 24 33 13 18 1021.5 1021.4 0.0
24/11:00am 16.5 13.4 12.3 76 2.3 WNW 20 32 11 17 1021.9 1021.8 0.0
24/10:30am 17.1 14.1 12.6 75 2.5 WNW 20 28 11 15 1021.9 1021.8 0.0
24/10:00am 16.9 13.7 12.0 73 2.7 WNW 20 28 11 15 1022.1 1022.0 0.0
24/09:30am 16.0 12.8 11.4 74 2.5 WNW 19 26 10 14 1022.6 1022.6 0.0
24/09:00am 15.9 13.3 11.9 77 2.2 WNW 17 22 9 12 1022.7 1022.7 0.0
24/08:30am 15.4 13.3 12.3 82 1.7 W 15 19 8 10 1022.8 1022.8 0.0
24/08:00am 15.4 13.7 12.3 82 1.7 W 13 19 7 10 1023.0 1023.0 0.0
24/07:30am 15.2 13.0 12.2 82 1.6 W 15 22 8 12 1022.9 1022.9 0.0
24/07:00am 14.8 13.4 12.3 85 1.4 W 11 17 6 9 1023.1 1023.1 0.0
24/06:30am 14.5 13.0 12.0 85 1.4 W 11 17 6 9 1023.1 1023.1 0.0
24/06:00am 14.5 13.0 12.0 85 1.3 W 11 15 6 8 1023.1 1023.1 0.0
24/05:30am 15.0 13.2 12.1 83 1.6 W 13 19 7 10 1023.3 1023.3 0.0
24/05:00am 15.3 13.4 11.9 80 1.8 W 13 17 7 9 1023.4 1023.4 0.0
24/04:30am 15.1 13.4 11.1 77 2.1 W 11 19 6 10 1023.4 1023.4 0.0
24/04:00am 15.1 12.8 11.7 80 1.8 WNW 15 22 8 12 1023.5 1023.5 0.0
24/03:30am 14.8 12.9 11.9 83 1.6 WNW 13 20 7 11 1023.4 1023.4 0.0
24/03:00am 15.0 12.4 12.1 83 1.6 WNW 17 22 9 12 1023.7 1023.7 0.0
24/02:30am 15.0 12.0 12.0 82 1.6 WNW 19 22 10 12 1024.3 1024.3 0.0
24/02:00am 15.1 12.1 12.1 82 1.6 WNW 19 24 10 13 1024.7 1024.7 0.0
24/01:30am 15.0 11.9 11.6 80 1.8 WNW 19 24 10 13 1025.0 1025.0 0.0
24/01:00am 15.1 12.0 11.5 79 1.9 WNW 19 24 10 13 1025.1 1025.1 0.0
24/12:30am 15.1 12.1 11.9 81 1.7 WNW 19 24 10 13 1025.4 1025.4 0.0
24/12:00am 15.1 12.0 11.5 79 1.9 WNW 19 26 10 14 1025.6 1025.6 0.0
 
Date/Time
EST
Temp
°C
App
Temp
°C
Dew
Point
°C
Rel
Hum
%
Delta-T
°C
Wind Press
QNH
hPa
Press
MSL
hPa
Rain since
9am
mm
Dir  Spd
km/h
Gust
km/h
Spd
kts
Gust
kts
23/11:30pm 15.2 12.2 11.8 80 1.8 WNW 19 26 10 14 1025.6 1025.6 0.0
23/11:00pm 14.8 12.9 11.8 82 1.6 WNW 13 24 7 13 1025.8 1025.8 0.0
23/10:30pm 14.5 13.6 11.5 82 1.6 WSW 7 15 4 8 1025.9 1025.9 0.0
23/10:00pm 14.9 13.0 11.9 82 1.6 W 13 20 7 11 1026.0 1026.0 0.0
23/09:30pm 14.1 12.8 11.1 82 1.6 WSW 9 13 5 7 1026.1 1026.1 0.0
23/09:00pm 14.5 12.8 11.3 81 1.7 WSW 11 22 6 12 1026.1 1026.1 0.0
23/08:30pm 14.7 12.4 11.7 82 1.6 W 15 24 8 13 1026.2 1026.2 0.0
23/08:00pm 14.4 12.4 11.4 82 1.6 WSW 13 20 7 11 1026.2 1026.2 0.0
23/07:30pm 14.4 10.6 11.2 81 1.7 W 22 32 12 17 1026.0 1026.0 0.0
23/07:00pm 14.4 10.6 11.2 81 1.7 W 22 30 12 16 1026.0 1026.0 0.0
23/06:30pm 14.4 10.2 11.0 80 1.8 W 24 32 13 17 1025.9 1025.9 0.0
23/06:00pm 14.6 10.0 11.0 79 1.9 W 26 35 14 19 1025.8 1025.8 0.0
23/05:30pm 14.5 10.1 10.5 77 2.1 W 24 37 13 20 1025.6 1025.6 0.0
23/05:00pm 14.9 10.5 10.5 75 2.3 W 24 35 13 19 1025.4 1025.4 0.0
23/04:30pm 15.4 11.1 10.8 74 2.4 WNW 24 35 13 19 1025.6 1025.6 0.0
23/04:00pm 15.6 11.2 10.4 71 2.7 WNW 24 35 13 19 1025.6 1025.6 0.0
23/03:30pm 16.1 11.6 10.2 68 3.1 WNW 24 33 13 18 1025.6 1025.6 0.0
23/03:00pm 16.4 12.0 10.5 68 3.1 WNW 24 35 13 19 1025.6 1025.6 0.0
23/02:30pm 16.7 11.1 10.3 66 3.4 WNW 30 37 16 20 1025.8 1025.8 0.0
23/02:00pm 16.2 10.5 9.8 66 3.3 WNW 30 41 16 22 1025.9 1025.9 0.0
23/01:30pm 16.8 11.8 9.7 63 3.7 WNW 26 35 14 19 1026.1 1026.1 0.0
23/01:00pm 16.8 11.9 10.0 64 3.6 WNW 26 33 14 18 1026.4 1026.4 0.0
23/12:30pm 16.8 12.4 10.4 66 3.4 WNW 24 32 13 17 1026.6 1026.6 0.0
23/12:00pm 16.7 12.0 9.1 61 3.9 WNW 24 32 13 17 1026.9 1026.9 0.0
23/11:30am 16.2 11.9 9.4 64 3.5 NW 22 30 12 16 1027.4 1027.4 0.0
23/11:00am 15.8 11.8 9.2 65 3.4 WNW 20 26 11 14 1027.5 1027.5 0.0
23/10:30am 17.1 13.5 10.0 63 3.7 WNW 19 28 10 15 1027.7 1027.7 0.0
23/10:00am 16.0 12.4 9.9 67 3.2 WNW 19 26 10 14 1027.7 1027.7 0.0
23/09:30am 16.4 13.2 10.0 66 3.4 WNW 17 28 9 15 1027.8 1027.8 0.0
23/09:00am 14.3 11.2 8.7 69 2.8 WNW 15 24 8 13 1027.9 1027.9 0.0
23/08:30am 14.8 11.9 9.6 71 2.7 WNW 15 22 8 12 1028.0 1028.0 0.0
23/08:00am 13.0 10.7 10.4 84 1.3 W 13 20 7 11 1027.7 1027.7 0.0
23/07:30am 11.8 10.3 10.4 91 0.7 WSW 9 11 5 6 1027.6 1027.6 0.0
23/07:00am 11.2 9.5 9.8 91 0.7 WSW 9 11 5 6 1027.1 1027.1 0.0
23/06:30am 11.0 9.6 9.6 91 0.7 WSW 7 9 4 5 1026.8 1026.8 0.0
23/06:00am 11.2 9.9 9.8 91 0.7 WSW 7 7 4 4 1026.6 1026.6 0.0
23/05:30am 11.0 9.2 9.6 91 0.7 SW 9 11 5 6 1026.6 1026.6 0.0
23/05:00am 11.0 9.6 9.4 90 0.8 SW 7 9 4 5 1026.6 1026.6 0.0
23/04:30am 11.4 10.1 9.8 90 0.8 WSW 7 9 4 5 1026.4 1026.4 0.0
23/04:00am 11.2 9.8 9.6 90 0.8 WSW 7 9 4 5 1026.3 1026.3 0.0
23/03:30am 11.1 9.7 9.5 90 0.8 SW 7 7 4 4 1026.1 1026.1 0.0
23/03:00am 11.3 10.1 9.6 89 0.9 WSW 6 9 3 5 1026.2 1026.2 0.0
23/02:30am 11.3 10.1 9.7 90 0.8 SW 6 7 3 4 1026.4 1026.4 0.0

Other formats

Comma delimited format used in spreadsheet applications
http://www.bom.gov.au/fwo/IDT60801/IDT60801.95985.axf

JavaScript Object Notation format (JSON) in row-major order
http://www.bom.gov.au/fwo/IDT60801/IDT60801.95985.json

Data quality

Most of these data are generated automatically and are frequently updated. Quality checks on data are not normally performed. It is possible for incorrect values to appear. Refer to information at About Latest Weather Observations and please check the disclaimer before using these data.